Time;durP1;ratioP1;P1;durP2;ratioP2;P2;SDS_P1;SDS_P2;PMS_P1;PMS_P2;Temp;Humidity;BMP_temperature;BMP_pressure;BME280_temperature;BME280_humidity;BME280_pressure;Samples;Min_cycle;Max_cycle;Signal;HPM_P1;HPM_P2
2023/09/19 00:01:08;;;;;;;0.20;0.20;;;;;;;19.12;100.00;99743.63;5044386;28;20041;-58
2023/09/19 00:03:37;;;;;;;0.30;0.30;;;;;;;19.08;100.00;99736.72;5038475;28;20033;-58
2023/09/19 00:06:04;;;;;;;0.20;0.20;;;;;;;19.10;100.00;99741.97;5031206;28;20049;-59
2023/09/19 00:08:30;;;;;;;0.20;0.20;;;;;;;19.11;100.00;99741.03;5038076;28;20139;-58
2023/09/19 00:10:58;;;;;;;0.20;0.20;;;;;;;19.08;100.00;99741.22;5037866;28;20145;-58
2023/09/19 00:13:24;;;;;;;0.20;0.20;;;;;;;19.11;100.00;99741.03;5035044;28;20029;-58
2023/09/19 00:15:50;;;;;;;0.20;0.20;;;;;;;19.08;100.00;99741.22;5031035;28;20056;-59
2023/09/19 00:18:18;;;;;;;0.20;0.20;;;;;;;19.09;100.00;99740.28;5042322;28;20064;-58
2023/09/19 00:20:47;;;;;;;0.20;0.20;;;;;;;19.13;100.00;99736.38;5036241;28;20043;-58
2023/09/19 00:23:13;;;;;;;0.20;0.20;;;;;;;19.15;100.00;99738.00;5041701;28;20832;-59
2023/09/19 00:25:40;;;;;;;0.20;0.20;;;;;;;19.15;100.00;99745.22;5030000;28;20062;-58
2023/09/19 00:28:07;;;;;;;0.20;0.20;;;;;;;19.09;100.00;99737.56;5030292;28;20061;-59
2023/09/19 00:30:33;;;;;;;0.20;0.20;;;;;;;19.05;100.00;99736.94;5039152;28;20026;-58
2023/09/19 00:32:58;;;;;;;0.20;0.20;;;;;;;19.05;100.00;99744.16;5030353;28;20536;-58
2023/09/19 00:35:24;;;;;;;0.20;0.20;;;;;;;19.01;100.00;99739.97;5030409;28;20127;-59
2023/09/19 00:37:50;;;;;;;0.10;0.10;;;;;;;18.99;100.00;99736.50;5033428;28;20035;-59
2023/09/19 00:40:16;;;;;;;0.10;0.10;;;;;;;18.97;100.00;99738.44;5035208;28;20051;-59
2023/09/19 00:42:46;;;;;;;0.20;0.20;;;;;;;18.92;100.00;99738.78;5046814;28;20030;-59
2023/09/19 00:45:15;;;;;;;0.30;0.30;;;;;;;18.87;100.00;99742.75;5039041;28;20413;-59
2023/09/19 00:47:43;;;;;;;0.20;0.20;;;;;;;18.84;100.00;99745.69;5036638;28;20033;-59
2023/09/19 00:50:10;;;;;;;0.20;0.20;;;;;;;18.79;100.00;99750.53;5034581;28;20037;-60
2023/09/19 00:52:39;;;;;;;0.30;0.30;;;;;;;18.76;100.00;99739.97;5038302;28;20030;-59
2023/09/19 00:55:09;;;;;;;0.20;0.20;;;;;;;18.74;100.00;99749.97;5042727;28;20563;-59
2023/09/19 00:57:38;;;;;;;0.28;0.28;;;;;;;18.69;100.00;99752.13;5044482;28;20107;-58
2023/09/19 01:00:38;;;;;;;0.20;0.20;;;;;;;18.68;100.00;99756.66;5044126;28;20028;-59
2023/09/19 01:03:06;;;;;;;0.20;0.20;;;;;;;18.64;100.00;99751.59;5034756;28;20029;-61
2023/09/19 01:05:33;;;;;;;0.20;0.20;;;;;;;18.64;100.00;99757.84;5041273;28;20052;-61
2023/09/19 01:07:58;;;;;;;0.20;0.20;;;;;;;18.67;100.00;99757.63;5047259;28;20054;-61
2023/09/19 01:10:25;;;;;;;0.20;0.20;;;;;;;18.69;100.00;99765.59;5039995;28;20021;-61
2023/09/19 01:13:21;;;;;;;0.20;0.20;;;;;;;18.64;100.00;99763.25;5046069;28;20041;-61
2023/09/19 01:16:23;;;;;;;0.20;0.20;;;;;;;18.65;100.00;99769.50;5045419;28;20025;-61
2023/09/19 01:19:23;;;;;;;0.20;0.20;;;;;;;18.64;100.00;99773.16;5032343;28;20068;-61
2023/09/19 01:22:06;;;;;;;0.20;0.20;;;;;;;18.64;100.00;99773.16;5043587;28;20036;-61
2023/09/19 01:25:00;;;;;;;0.20;0.20;;;;;;;18.66;100.00;99772.09;5047070;28;20136;-61
2023/09/19 01:27:36;;;;;;;0.20;0.20;;;;;;;18.69;100.00;99776.38;5041868;28;20116;-61
2023/09/19 01:30:24;;;;;;;0.20;0.20;;;;;;;18.73;100.00;99772.53;5036685;28;20500;-61
2023/09/19 01:32:53;;;;;;;0.20;0.20;;;;;;;18.75;100.00;99770.56;5032233;28;20037;-61
2023/09/19 01:35:19;;;;;;;0.20;0.20;;;;;;;18.76;100.00;99772.31;5045922;28;20558;-61
2023/09/19 01:37:45;;;;;;;0.20;0.20;;;;;;;18.77;100.00;99779.41;5045083;28;20033;-61
2023/09/19 01:40:19;;;;;;;0.30;0.30;;;;;;;18.74;100.00;99779.63;5045982;28;20037;-61
2023/09/19 01:43:02;;;;;;;0.20;0.20;;;;;;;18.73;100.00;99777.91;5039847;28;20022;-61
2023/09/19 01:46:19;;;;;;;0.20;0.20;;;;;;;18.71;100.00;99779.84;5034460;28;20079;-61
2023/09/19 01:49:06;;;;;;;0.20;0.20;;;;;;;18.69;100.00;99787.16;4987803;28;20118;-61
2023/09/19 01:51:46;;;;;;;0.20;0.20;;;;;;;18.69;100.00;99781.78;5034746;28;20479;-61
2023/09/19 01:54:13;;;;;;;0.20;0.20;;;;;;;18.70;100.00;99789.75;5048292;28;20028;-61
2023/09/19 01:57:05;;;;;;;0.20;0.20;;;;;;;18.64;100.00;99790.19;5032919;28;20029;-62
2023/09/19 01:59:52;;;;;;;0.20;0.20;;;;;;;18.68;100.00;99801.63;5042577;28;20045;-61
2023/09/19 02:02:21;;;;;;;0.20;0.20;;;;;;;18.71;100.00;99804.09;5042912;28;20109;-62
2023/09/19 02:04:48;;;;;;;0.20;0.20;;;;;;;18.69;100.00;99798.81;5052276;28;20037;-62
2023/09/19 02:07:15;;;;;;;0.20;0.20;;;;;;;18.72;100.00;99803.09;5051404;28;20070;-61
2023/09/19 02:09:42;;;;;;;0.20;0.20;;;;;;;18.69;100.00;99803.31;5046590;28;20092;-61
2023/09/19 02:12:09;;;;;;;0.20;0.20;;;;;;;18.66;100.00;99814.31;5052753;28;20049;-61
2023/09/19 02:14:35;;;;;;;0.20;0.20;;;;;;;18.65;100.00;99812.59;5050898;28;20514;-61
2023/09/19 02:17:03;;;;;;;0.20;0.20;;;;;;;18.66;100.00;99817.03;5045506;28;20032;-61
2023/09/19 02:19:29;;;;;;;0.20;0.20;;;;;;;18.69;100.00;99831.16;5053526;28;20031;-62
2023/09/19 02:21:55;;;;;;;0.30;0.30;;;;;;;18.68;100.00;99823.16;5042770;28;20059;-62
2023/09/19 02:24:20;;;;;;;0.20;0.20;;;;;;;18.70;100.00;99829.31;5034527;28;20025;-62
2023/09/19 02:26:47;;;;;;;0.20;0.20;;;;;;;18.74;100.00;99833.50;5044411;28;20076;-62
2023/09/19 02:29:13;;;;;;;0.20;0.20;;;;;;;18.77;100.00;99833.31;5054365;28;20477;-62
2023/09/19 02:31:39;;;;;;;0.22;0.22;;;;;;;18.78;100.00;99830.50;5035062;28;20033;-62
2023/09/19 02:34:06;;;;;;;0.20;0.20;;;;;;;18.82;100.00;99831.16;5032851;28;20112;-62
2023/09/19 02:36:31;;;;;;;0.20;0.20;;;;;;;18.86;100.00;99830.00;5039761;28;20553;-62
2023/09/19 02:38:57;;;;;;;0.20;0.20;;;;;;;18.89;100.00;99827.06;5041849;28;20014;-62
2023/09/19 02:41:23;;;;;;;0.20;0.20;;;;;;;18.89;100.00;99821.69;5052380;28;20053;-62
2023/09/19 02:43:48;;;;;;;0.10;0.10;;;;;;;18.89;100.00;99827.06;5038125;28;20360;-61
2023/09/19 02:46:14;;;;;;;0.20;0.20;;;;;;;18.87;100.00;99819.09;5052396;28;20044;-62
2023/09/19 02:48:39;;;;;;;0.20;0.20;;;;;;;18.93;100.00;99824.06;5034862;28;20457;-62
2023/09/19 02:51:05;;;;;;;0.20;0.20;;;;;;;18.96;100.00;99828.38;5043476;28;20025;-62
2023/09/19 02:53:31;;;;;;;0.20;0.20;;;;;;;18.96;100.00;99831.91;5054984;28;20032;-61
2023/09/19 02:55:57;;;;;;;0.20;0.20;;;;;;;18.97;100.00;99838.19;5047003;28;20059;-60
2023/09/19 02:58:24;;;;;;;0.20;0.20;;;;;;;19.01;100.00;99832.47;5034764;28;20029;-60
2023/09/19 03:00:51;;;;;;;0.20;0.20;;;;;;;19.00;100.00;99833.44;5033516;28;20022;-60
2023/09/19 03:03:17;;;;;;;0.30;0.30;;;;;;;19.01;100.00;99837.00;5040001;28;20499;-60
2023/09/19 03:05:46;;;;;;;0.20;0.20;;;;;;;19.02;100.00;99833.34;5052889;28;20036;-60
2023/09/19 03:08:14;;;;;;;0.20;0.20;;;;;;;19.02;100.00;99828.81;5053095;28;20050;-60
2023/09/19 03:10:40;;;;;;;0.20;0.20;;;;;;;19.02;100.00;99834.22;5052591;28;20040;-60
2023/09/19 03:13:09;;;;;;;0.20;0.20;;;;;;;19.02;100.00;99844.13;5044489;28;20029;-60
2023/09/19 03:15:38;;;;;;;0.20;0.20;;;;;;;19.00;100.00;99848.75;5047703;28;20433;-59
2023/09/19 03:18:04;;;;;;;0.20;0.20;;;;;;;18.95;100.00;99849.06;5042399;28;20674;-58
2023/09/19 03:20:29;;;;;;;0.20;0.20;;;;;;;19.00;100.00;99859.53;5050771;28;20029;-59
2023/09/19 03:22:56;;;;;;;0.20;0.20;;;;;;;18.91;100.00;99857.50;5051022;28;20021;-61
2023/09/19 03:25:23;;;;;;;0.20;0.20;;;;;;;18.95;100.00;99867.94;5033713;28;20137;-61
2023/09/19 03:27:48;;;;;;;0.20;0.20;;;;;;;18.93;100.00;99861.78;5031708;28;20408;-59
2023/09/19 03:30:14;;;;;;;0.20;0.20;;;;;;;18.90;100.00;99861.13;5033106;28;20070;-58
2023/09/19 03:32:46;;;;;;;0.20;0.20;;;;;;;18.89;100.00;99859.41;5058468;28;20022;-59
2023/09/19 03:35:14;;;;;;;0.20;0.20;;;;;;;18.89;100.00;99856.72;5031917;28;20093;-61
2023/09/19 03:37:43;;;;;;;0.20;0.20;;;;;;;18.83;100.00;99859.84;5040075;28;20531;-60
2023/09/19 03:40:10;;;;;;;0.20;0.20;;;;;;;18.73;100.00;99847.97;5043103;28;20383;-59
2023/09/19 03:42:39;;;;;;;0.20;0.20;;;;;;;18.82;100.00;99864.38;5038731;28;20033;-59
2023/09/19 03:45:06;;;;;;;0.20;0.20;;;;;;;18.84;100.00;99846.28;5036719;28;20120;-61
2023/09/19 03:47:31;;;;;;;0.20;0.20;;;;;;;18.87;100.00;99851.44;5042459;28;20037;-59
2023/09/19 03:49:56;;;;;;;0.20;0.20;;;;;;;18.85;100.00;99844.41;5031420;28;20337;-59
2023/09/19 03:52:22;;;;;;;0.20;0.20;;;;;;;18.83;100.00;99843.69;5037441;28;20037;-60
2023/09/19 03:54:47;;;;;;;0.20;0.20;;;;;;;18.80;100.00;99844.72;5044236;28;20423;-60
2023/09/19 03:57:15;;;;;;;0.20;0.20;;;;;;;18.74;100.00;99857.78;5039460;28;20032;-59
2023/09/19 03:59:42;;;;;;;0.20;0.20;;;;;;;18.73;100.00;99864.97;5050456;28;20021;-59
2023/09/19 04:02:12;;;;;;;0.20;0.20;;;;;;;18.77;100.00;99880.00;5031148;28;20104;-59
2023/09/19 04:04:37;;;;;;;0.20;0.20;;;;;;;18.78;100.00;99879.00;5051146;28;20033;-59
2023/09/19 04:07:03;;;;;;;0.20;0.20;;;;;;;18.82;100.00;99880.53;5050925;28;20089;-59
2023/09/19 04:09:28;;;;;;;0.20;0.20;;;;;;;18.84;100.00;99886.69;5043710;28;20358;-59
2023/09/19 04:11:53;;;;;;;0.20;0.20;;;;;;;18.86;100.00;99882.03;5048172;28;20056;-59
2023/09/19 04:14:19;;;;;;;0.20;0.20;;;;;;;18.85;100.00;99891.09;5049923;28;20104;-60
2023/09/19 04:16:44;;;;;;;0.20;0.20;;;;;;;18.81;100.00;99888.72;5035172;28;20029;-59
2023/09/19 04:19:10;;;;;;;0.20;0.20;;;;;;;18.77;100.00;99881.81;5046023;28;20107;-59
2023/09/19 04:21:35;;;;;;;0.20;0.20;;;;;;;18.71;100.00;99882.25;5035888;28;20025;-59
2023/09/19 04:24:00;;;;;;;0.20;0.20;;;;;;;18.65;100.00;99888.06;5037204;28;20025;-59
2023/09/19 04:26:26;;;;;;;0.20;0.20;;;;;;;18.48;100.00;99883.78;5060866;28;20024;-59
2023/09/19 04:28:51;;;;;;;0.20;0.20;;;;;;;18.44;100.00;99894.84;5030074;28;20140;-60
2023/09/19 04:31:18;;;;;;;0.20;0.20;;;;;;;18.38;100.00;99891.56;5033807;28;20079;-60
2023/09/19 04:33:43;;;;;;;0.20;0.20;;;;;;;18.34;100.00;99895.44;5039977;28;20044;-60
2023/09/19 04:36:09;;;;;;;0.28;0.28;;;;;;;18.31;100.00;99901.03;5031758;28;20017;-59
2023/09/19 04:38:35;;;;;;;0.20;0.20;;;;;;;18.26;100.00;99902.28;5042662;28;20487;-60
2023/09/19 04:41:00;;;;;;;0.20;0.20;;;;;;;18.29;100.00;99891.31;5045135;28;20025;-60
2023/09/19 04:43:26;;;;;;;0.20;0.20;;;;;;;18.22;100.00;99900.75;5033895;28;20022;-60
2023/09/19 04:45:55;;;;;;;0.22;0.22;;;;;;;18.09;100.00;99911.47;5030224;28;20911;-59
2023/09/19 04:48:24;;;;;;;0.20;0.20;;;;;;;18.04;100.00;99913.59;5036920;28;20025;-60
2023/09/19 04:50:50;;;;;;;0.30;0.30;;;;;;;18.03;100.00;99922.63;5029560;28;20032;-59
2023/09/19 04:53:17;;;;;;;0.25;0.25;;;;;;;18.03;100.00;99928.03;5048433;28;20036;-59
2023/09/19 04:55:43;;;;;;;0.20;0.20;;;;;;;18.00;100.00;99922.84;5043017;28;20659;-59
2023/09/19 04:58:08;;;;;;;0.20;0.20;;;;;;;18.04;100.00;99926.19;5048413;28;20033;-60
2023/09/19 05:00:35;;;;;;;0.20;0.20;;;;;;;18.05;100.00;99936.88;5043183;28;20029;-59
2023/09/19 05:03:00;;;;;;;0.20;0.20;;;;;;;18.05;100.00;99934.19;5045405;28;20057;-59
2023/09/19 05:05:26;;;;;;;0.20;0.20;;;;;;;18.08;100.00;99941.19;5029841;28;20057;-59
2023/09/19 05:07:54;;;;;;;0.20;0.20;;;;;;;18.09;100.00;99942.91;5043432;28;20075;-60
2023/09/19 05:10:19;;;;;;;0.20;0.20;;;;;;;18.09;100.00;99946.47;5035872;28;20765;-59
2023/09/19 05:12:48;;;;;;;0.20;0.20;;;;;;;18.14;100.00;99957.81;5049436;28;20053;-59
2023/09/19 05:15:17;;;;;;;0.20;0.20;;;;;;;18.16;100.00;99961.28;5048045;28;20051;-59
2023/09/19 05:17:47;;;;;;;0.20;0.20;;;;;;;18.18;100.00;99964.72;5041288;28;20376;-60
2023/09/19 05:20:29;;;;;;;0.28;0.28;;;;;;;18.20;100.00;99968.16;5048075;28;20091;-59
2023/09/19 05:23:01;;;;;;;0.20;0.20;;;;;;;18.23;100.00;99957.22;5048199;28;20082;-59
2023/09/19 05:25:29;;;;;;;0.20;0.20;;;;;;;18.23;100.00;99968.00;5058224;28;20025;-60
2023/09/19 05:27:57;;;;;;;0.20;0.20;;;;;;;18.22;100.00;99974.31;5068544;28;20190;-59
2023/09/19 05:30:23;;;;;;;0.20;0.20;;;;;;;18.22;100.00;99979.72;5049096;28;20091;-59
2023/09/19 05:32:48;;;;;;;0.20;0.20;;;;;;;18.18;100.00;99975.50;5049451;28;20021;-60
2023/09/19 05:35:14;;;;;;;0.20;0.20;;;;;;;18.12;100.00;99969.66;5048489;28;20131;-60
2023/09/19 05:37:40;;;;;;;0.28;0.28;;;;;;;18.14;100.00;99968.56;5051296;28;20029;-61
2023/09/19 05:40:07;;;;;;;0.30;0.30;;;;;;;18.16;100.00;99974.72;5052008;28;20021;-61
2023/09/19 05:42:32;;;;;;;0.20;0.20;;;;;;;18.23;100.00;99967.13;5052251;28;20519;-61
2023/09/19 05:44:58;;;;;;;0.20;0.20;;;;;;;18.27;100.00;99974.91;5033470;28;20029;-61
2023/09/19 05:47:24;;;;;;;0.20;0.20;;;;;;;18.26;100.00;99969.59;5043300;28;20033;-61
2023/09/19 05:49:50;;;;;;;0.20;0.20;;;;;;;18.27;100.00;99969.50;5053514;28;20025;-61
2023/09/19 05:52:17;;;;;;;0.30;0.30;;;;;;;18.31;100.00;99981.81;5051944;28;20040;-61
2023/09/19 05:54:43;;;;;;;0.20;0.20;;;;;;;18.37;100.00;99991.31;5047877;28;20025;-61
2023/09/19 05:57:10;;;;;;;0.17;0.17;;;;;;;18.38;100.00;99987.69;5042427;28;20044;-61
2023/09/19 05:59:36;;;;;;;0.22;0.22;;;;;;;18.45;100.00;99991.72;5033699;28;20025;-61
2023/09/19 06:02:01;;;;;;;0.20;0.20;;;;;;;18.47;100.00;99991.63;5040360;28;20032;-61
2023/09/19 06:04:26;;;;;;;0.30;0.30;;;;;;;18.40;100.00;99975.03;5035145;28;20371;-61
2023/09/19 06:06:52;;;;;;;0.30;0.30;;;;;;;18.57;100.00;99995.44;5052286;28;20116;-61
2023/09/19 06:09:18;;;;;;;0.20;0.20;;;;;;;18.64;100.00;99999.47;5053088;28;20782;-61
2023/09/19 06:11:44;;;;;;;0.20;0.20;;;;;;;18.70;100.00;100002.63;5045841;28;20109;-61
2023/09/19 06:14:10;;;;;;;0.20;0.20;;;;;;;18.79;100.00;100003.84;5033875;28;20171;-61
2023/09/19 06:16:37;;;;;;;0.20;0.20;;;;;;;18.85;100.00;100003.44;5041669;28;20119;-61
2023/09/19 06:19:03;;;;;;;0.25;0.25;;;;;;;18.80;100.00;99984.00;5032947;28;20021;-61
2023/09/19 06:21:29;;;;;;;0.20;0.20;;;;;;;19.02;100.00;100011.28;5034807;28;20030;-61
2023/09/19 06:23:54;;;;;;;0.20;0.20;;;;;;;19.17;100.00;100015.63;5033442;28;20078;-61
2023/09/19 06:26:20;;;;;;;0.20;0.20;;;;;;;19.23;100.00;100024.16;5043621;28;20055;-61
2023/09/19 06:28:45;;;;;;;0.20;0.20;;;;;;;19.27;100.00;100023.00;5054055;28;20036;-61
2023/09/19 06:31:11;;;;;;;0.20;0.20;;;;;;;19.29;100.00;100031.03;5052282;28;20037;-61
2023/09/19 06:33:40;;;;;;;0.20;0.20;;;;;;;19.27;100.00;100031.09;5055002;28;20039;-61
2023/09/19 06:36:07;;;;;;;0.20;0.20;;;;;;;19.23;100.00;100023.28;5051681;28;20048;-61
2023/09/19 06:38:34;;;;;;;0.20;0.20;;;;;;;19.24;100.00;100033.97;5054123;28;20041;-61
2023/09/19 06:41:01;;;;;;;0.20;0.20;;;;;;;19.24;100.00;100027.75;5047772;28;20028;-61
2023/09/19 06:43:28;;;;;;;0.20;0.20;;;;;;;19.22;100.00;100029.66;5054986;28;20021;-61
2023/09/19 06:45:54;;;;;;;0.20;0.20;;;;;;;19.22;100.00;100025.16;5051259;28;20037;-61
2023/09/19 06:48:21;;;;;;;0.20;0.20;;;;;;;19.21;100.00;100022.53;5053325;28;20112;-61
2023/09/19 06:50:48;;;;;;;0.20;0.20;;;;;;;19.27;100.00;100022.13;5046319;28;20485;-61
2023/09/19 06:53:14;;;;;;;0.30;0.30;;;;;;;19.38;100.00;100030.38;5051256;28;20059;-61
2023/09/19 06:55:40;;;;;;;0.20;0.20;;;;;;;20.46;100.00;100028.03;5051937;28;20037;-61
2023/09/19 06:58:06;;;;;;;0.20;0.20;;;;;;;22.40;100.00;100020.16;5051325;28;20078;-61
2023/09/19 07:00:36;;;;;;;0.20;0.20;;;;;;;24.17;97.18;100022.22;5052312;28;20064;-61
2023/09/19 07:03:08;;;;;;;0.10;0.10;;;;;;;25.82;81.87;100031.31;5042605;28;20103;-61
2023/09/19 07:05:37;;;;;;;0.17;0.17;;;;;;;27.19;70.94;100041.41;5047127;28;20029;-62
2023/09/19 07:08:03;;;;;;;0.20;0.20;;;;;;;28.11;66.02;100038.19;5053746;28;20497;-62
2023/09/19 07:10:29;;;;;;;0.10;0.10;;;;;;;28.86;60.91;100042.91;5056241;28;20028;-62
2023/09/19 07:13:11;;;;;;;0.20;0.20;;;;;;;29.29;58.95;100042.72;5043261;28;20049;-62
2023/09/19 07:15:47;;;;;;;0.20;0.20;;;;;;;29.71;56.55;100039.03;5050082;28;20072;-62
2023/09/19 07:18:15;;;;;;;0.10;0.10;;;;;;;29.99;55.00;100037.66;5046463;28;20060;-62
2023/09/19 07:20:48;;;;;;;0.10;0.10;;;;;;;29.92;54.14;100042.97;5052342;28;20045;-62
2023/09/19 07:23:15;;;;;;;0.10;0.10;;;;;;;29.64;54.24;100034.19;5043951;28;20036;-62
2023/09/19 07:25:41;;;;;;;0.10;0.10;;;;;;;29.54;55.82;100032.63;5046444;28;20108;-62
2023/09/19 07:28:06;;;;;;;0.10;0.10;;;;;;;29.42;55.48;100039.50;5048821;28;20546;-62
2023/09/19 07:30:35;;;;;;;0.10;0.10;;;;;;;29.07;55.85;100039.72;5047233;28;20034;-62
2023/09/19 07:33:02;;;;;;;0.10;0.10;;;;;;;28.65;56.34;100038.88;5047285;28;20029;-63
2023/09/19 07:35:28;;;;;;;0.10;0.10;;;;;;;28.56;56.22;100045.34;5047513;28;20021;-62
2023/09/19 07:37:54;;;;;;;0.10;0.10;;;;;;;27.68;58.04;100049.09;5048713;28;20589;-63
2023/09/19 07:40:23;;;;;;;0.10;0.10;;;;;;;27.37;59.41;100045.06;5050508;28;20083;-63
2023/09/19 07:42:50;;;;;;;0.10;0.10;;;;;;;27.46;59.50;100043.25;5051321;28;20043;-63
2023/09/19 07:45:16;;;;;;;0.10;0.10;;;;;;;27.53;59.03;100050.66;5046835;28;20056;-63
2023/09/19 07:47:46;;;;;;;0.10;0.10;;;;;;;27.98;59.87;100056.91;5057814;28;20350;-63
2023/09/19 07:50:12;;;;;;;0.10;0.10;;;;;;;28.06;57.87;100061.56;5041553;28;20026;-62
2023/09/19 07:52:39;;;;;;;0.10;0.10;;;;;;;27.46;58.94;100063.25;5052742;28;20024;-62
2023/09/19 07:55:08;;;;;;;0.10;0.10;;;;;;;27.12;59.37;100073.06;5058657;28;20395;-62
2023/09/19 07:57:37;;;;;;;0.10;0.10;;;;;;;26.93;60.58;100070.47;5059028;28;20040;-63
2023/09/19 08:00:04;;;;;;;0.10;0.10;;;;;;;26.92;63.35;100074.19;5059343;28;20071;-62
2023/09/19 08:02:34;;;;;;;0.10;0.10;;;;;;;27.45;62.86;100069.72;5059553;28;20022;-63
2023/09/19 08:05:00;;;;;;;0.10;0.10;;;;;;;27.58;60.61;100070.19;5052272;28;20029;-63
2023/09/19 08:07:26;;;;;;;0.10;0.10;;;;;;;27.75;58.68;100077.53;5056571;28;20029;-63
2023/09/19 08:09:51;;;;;;;0.10;0.10;;;;;;;27.47;57.41;100084.09;5055132;28;20108;-62
2023/09/19 08:12:17;;;;;;;0.10;0.10;;;;;;;26.87;57.75;100082.00;5047131;28;20046;-63
2023/09/19 08:14:43;;;;;;;0.10;0.10;;;;;;;27.01;58.83;100090.56;5051509;28;20061;-63
2023/09/19 08:17:08;;;;;;;0.10;0.10;;;;;;;26.93;56.56;100086.84;5045323;28;20029;-60
2023/09/19 08:19:34;;;;;;;0.10;0.10;;;;;;;26.42;58.16;100083.75;5040850;28;20017;-60
2023/09/19 08:22:00;;;;;;;0.10;0.10;;;;;;;26.39;60.02;100084.03;5049575;28;20464;-60
2023/09/19 08:24:28;;;;;;;0.10;0.10;;;;;;;26.64;59.76;100084.22;5037911;28;20502;-60
2023/09/19 08:26:54;;;;;;;0.10;0.10;;;;;;;26.74;59.43;100081.47;5042162;28;20074;-61
2023/09/19 08:29:20;;;;;;;0.10;0.10;;;;;;;26.80;58.90;100086.34;5037868;28;20477;-60
2023/09/19 08:31:49;;;;;;;0.10;0.10;;;;;;;26.76;59.74;100079.47;5032608;28;20040;-60
2023/09/19 08:34:15;;;;;;;0.10;0.10;;;;;;;26.60;58.53;100084.69;5049362;28;20033;-61
2023/09/19 08:36:43;;;;;;;0.10;0.10;;;;;;;26.43;57.89;100085.44;5036413;28;20029;-60
2023/09/19 08:39:08;;;;;;;0.10;0.10;;;;;;;25.65;59.05;100094.72;5029544;28;20057;-60
2023/09/19 08:41:34;;;;;;;0.10;0.10;;;;;;;25.80;61.18;100089.69;5031074;28;20540;-61
2023/09/19 08:44:03;;;;;;;0.10;0.10;;;;;;;26.00;58.88;100093.28;5044661;28;20916;-60
2023/09/19 08:46:31;;;;;;;0.10;0.10;;;;;;;25.89;59.55;100083.38;5053995;28;20072;-60
2023/09/19 08:49:13;;;;;;;0.10;0.10;;;;;;;25.90;60.22;100102.31;5049315;28;20029;-61
2023/09/19 08:51:45;;;;;;;0.10;0.10;;;;;;;25.71;62.31;100096.91;5032373;28;20425;-60
2023/09/19 08:54:26;;;;;;;0.10;0.10;;;;;;;25.69;58.30;100095.31;5034393;28;20029;-60
2023/09/19 08:56:54;;;;;;;0.10;0.10;;;;;;;25.76;60.59;100085.56;5030855;28;20127;-61
2023/09/19 08:59:26;;;;;;;0.10;0.10;;;;;;;26.30;59.28;100098.56;5037970;28;20039;-60
2023/09/19 09:01:53;;;;;;;0.10;0.10;;;;;;;26.61;56.57;100089.13;5048862;28;20025;-60
2023/09/19 09:04:20;;;;;;;0.10;0.10;;;;;;;27.11;53.68;100088.63;5047641;28;20029;-60
2023/09/19 09:06:49;;;;;;;0.10;0.10;;;;;;;26.47;51.46;100097.78;5036011;28;20135;-60
2023/09/19 09:09:15;;;;;;;0.10;0.10;;;;;;;25.83;55.61;100100.34;5035819;28;20029;-60
2023/09/19 09:11:41;;;;;;;0.10;0.10;;;;;;;25.10;57.19;100102.66;5041590;28;20072;-60
2023/09/19 09:14:09;;;;;;;0.10;0.10;;;;;;;24.40;59.78;100103.47;5029812;28;20810;-61
2023/09/19 09:16:35;;;;;;;0.10;0.10;;;;;;;24.04;60.99;100108.53;5029359;28;20064;-60
2023/09/19 09:19:01;;;;;;;0.10;0.10;;;;;;;23.81;64.64;100098.75;5029554;28;20540;-61
2023/09/19 09:21:27;;;;;;;0.10;0.10;;;;;;;24.11;62.75;100113.34;5047594;28;20104;-60
2023/09/19 09:23:53;;;;;;;0.10;0.10;;;;;;;24.62;62.19;100105.16;5032037;28;20033;-60
2023/09/19 09:26:42;;;;;;;0.10;0.10;;;;;;;25.67;58.43;100098.16;5034592;28;20037;-60
2023/09/19 09:29:08;;;;;;;0.10;0.10;;;;;;;26.24;54.15;100093.69;5046839;28;20033;-60
2023/09/19 09:31:33;;;;;;;0.10;0.10;;;;;;;26.51;52.51;100096.47;5047553;28;20075;-60
2023/09/19 09:33:59;;;;;;;0.10;0.10;;;;;;;27.03;51.60;100093.13;5035058;28;20104;-61
2023/09/19 09:36:36;;;;;;;0.10;0.10;;;;;;;27.86;49.13;100095.56;5028788;28;20103;-60
2023/09/19 09:39:15;;;;;;;0.10;0.10;;;;;;;28.28;45.27;100094.75;5032878;28;20470;-60
2023/09/19 09:41:42;;;;;;;0.00;0.00;;;;;;;28.17;44.39;100089.53;5032050;28;20507;-60
2023/09/19 09:44:15;;;;;;;0.10;0.10;;;;;;;28.56;44.68;100092.75;5029543;28;20543;-60
2023/09/19 09:49:36;;;;;;;0.10;0.10;;;;;;;29.64;43.73;100093.66;5041308;28;20025;-60
2023/09/19 09:52:07;;;;;;;0.00;0.00;;;;;;;29.70;41.55;100092.16;5043746;28;20032;-61
2023/09/19 09:54:37;;;;;;;0.00;0.00;;;;;;;28.64;41.21;100089.16;5043536;28;20041;-60
2023/09/19 09:57:16;;;;;;;0.00;0.00;;;;;;;27.84;43.58;100103.91;5029136;28;20033;-60
2023/09/19 09:59:47;;;;;;;0.00;0.00;;;;;;;26.77;44.56;100095.69;5034582;28;20092;-60
2023/09/19 10:02:14;;;;;;;0.10;0.10;;;;;;;26.20;48.06;100094.97;5035778;28;20130;-60
2023/09/19 10:04:51;;;;;;;0.00;0.00;;;;;;;26.94;49.40;100099.47;5028523;28;20132;-61
2023/09/19 10:07:37;;;;;;;0.10;0.10;;;;;;;27.21;47.47;100094.88;5038080;28;20106;-61
2023/09/19 10:10:16;;;;;;;0.10;0.10;;;;;;;26.79;47.37;100093.66;5036673;28;20500;-61
2023/09/19 10:12:47;;;;;;;0.00;0.00;;;;;;;26.30;47.83;100084.91;5040345;28;20048;-61
2023/09/19 10:15:15;;;;;;;0.10;0.10;;;;;;;26.15;48.92;100094.56;5053903;28;20029;-60
2023/09/19 10:17:45;;;;;;;0.10;0.10;;;;;;;26.70;48.72;100085.53;5032144;28;20115;-60
2023/09/19 10:20:24;;;;;;;0.10;0.10;;;;;;;27.41;45.29;100094.78;5030673;28;20021;-60
2023/09/19 10:22:57;;;;;;;0.08;0.08;;;;;;;28.35;46.88;100087.59;5046795;28;20082;-61
2023/09/19 10:25:28;;;;;;;0.00;0.00;;;;;;;28.91;43.69;100087.09;5039160;28;20035;-61
2023/09/19 10:27:55;;;;;;;0.05;0.05;;;;;;;29.13;43.03;100080.19;5029304;28;20040;-61
2023/09/19 10:30:23;;;;;;;0.00;0.00;;;;;;;29.40;43.60;100077.19;5028616;28;20029;-62
2023/09/19 10:32:59;;;;;;;0.00;0.00;;;;;;;29.37;43.47;100081.09;5040025;28;20025;-61
2023/09/19 10:35:25;;;;;;;0.00;0.00;;;;;;;29.20;44.01;100062.06;5040404;28;20103;-62
2023/09/19 10:37:54;;;;;;;0.00;0.00;;;;;;;29.94;42.68;100071.09;5040792;28;20444;-64
2023/09/19 10:40:21;;;;;;;0.00;0.00;;;;;;;29.91;40.68;100074.19;5056576;28;20025;-63
2023/09/19 10:42:50;;;;;;;0.00;0.00;;;;;;;29.91;41.00;100073.31;5059961;28;20033;-64
2023/09/19 10:45:20;;;;;;;0.00;0.00;;;;;;;29.90;39.50;100077.09;5053555;28;20392;-64
2023/09/19 10:47:46;;;;;;;0.00;0.00;;;;;;;29.81;40.82;100068.00;5057234;28;20762;-64
2023/09/19 10:50:21;;;;;;;0.00;0.00;;;;;;;28.85;41.74;100076.78;5048225;28;20041;-64
2023/09/19 10:52:50;;;;;;;0.00;0.00;;;;;;;28.22;43.31;100072.66;5048217;28;20071;-63
2023/09/19 10:55:19;;;;;;;0.00;0.00;;;;;;;27.96;44.39;100080.81;5050062;28;20048;-63
2023/09/19 10:57:46;;;;;;;0.00;0.00;;;;;;;27.56;43.42;100071.38;5047857;28;20025;-63
2023/09/19 11:00:28;;;;;;;0.00;0.00;;;;;;;27.45;46.27;100069.72;5046941;28;20021;-63
2023/09/19 11:03:13;;;;;;;0.00;0.00;;;;;;;27.19;45.54;100068.72;5047503;28;20039;-63
2023/09/19 11:05:41;;;;;;;0.00;0.00;;;;;;;27.39;45.53;100073.09;5062488;28;20136;-64
2023/09/19 11:08:12;;;;;;;0.00;0.00;;;;;;;27.38;45.53;100062.31;5052775;28;20128;-64
2023/09/19 11:10:48;;;;;;;0.03;0.03;;;;;;;27.22;45.94;100057.50;5057512;28;20365;-64
2023/09/19 11:13:34;;;;;;;0.00;0.00;;;;;;;27.27;43.88;100060.63;5064387;28;20029;-64
2023/09/19 11:16:04;;;;;;;0.05;0.05;;;;;;;27.26;44.05;100061.66;5049491;28;20045;-64
2023/09/19 11:18:42;;;;;;;0.00;0.00;;;;;;;27.83;44.30;100053.00;5048883;28;20036;-64
2023/09/19 11:21:30;;;;;;;0.00;0.00;;;;;;;28.28;45.22;100052.84;5044262;28;20033;-63
2023/09/19 11:24:30;;;;;;;0.00;0.00;;;;;;;28.99;43.38;100048.78;5061681;28;20033;-64
2023/09/19 11:27:17;;;;;;;0.10;0.10;;;;;;;28.79;42.58;100051.94;5051622;28;20036;-64
2023/09/19 11:29:43;;;;;;;0.00;0.00;;;;;;;27.90;42.42;100054.13;5044832;28;20021;-62
2023/09/19 11:32:09;;;;;;;0.10;0.10;;;;;;;27.47;44.76;100054.03;5045958;28;20350;-64
2023/09/19 11:34:44;;;;;;;0.00;0.00;;;;;;;27.38;44.09;100046.75;5054179;28;20104;-64
2023/09/19 11:37:11;;;;;;;0.00;0.00;;;;;;;27.00;44.96;100047.03;5057114;28;20060;-63